Time;durP1;ratioP1;P1;durP2;ratioP2;P2;SDS_P1;SDS_P2;PMS_P1;PMS_P2;Temp;Humidity;BMP_temperature;BMP_pressure;BME280_temperature;BME280_humidity;BME280_pressure;Samples;Min_cycle;Max_cycle;Signal;HPM_P1;HPM_P2
2022/10/01 00:00:55;;;;;;;22.52;12.68;;;;;;;9.45;100.00;100145.63;5082994;28;20095;-69
2022/10/01 00:03:23;;;;;;;22.65;12.00;;;;;;;9.42;100.00;100135.97;5085019;28;20032;-68
2022/10/01 00:06:08;;;;;;;22.75;12.23;;;;;;;9.43;100.00;100125.41;5081586;28;20467;-68
2022/10/01 00:08:36;;;;;;;22.95;12.60;;;;;;;9.46;100.00;100136.84;5083012;28;20031;-67
2022/10/01 00:11:10;;;;;;;22.77;11.65;;;;;;;9.49;100.00;100121.00;5083968;28;20023;-69
2022/10/01 00:13:37;;;;;;;22.38;12.63;;;;;;;9.50;100.00;100125.41;5082795;28;20039;-68
2022/10/01 00:16:08;;;;;;;23.52;13.00;;;;;;;9.49;100.00;100121.00;5083490;28;20024;-69
2022/10/01 00:18:38;;;;;;;23.60;13.30;;;;;;;9.43;100.00;100106.94;5082928;28;20032;-68
2022/10/01 00:21:08;;;;;;;23.35;13.13;;;;;;;9.42;100.00;100099.03;5083772;28;20379;-67
2022/10/01 00:23:35;;;;;;;23.75;13.35;;;;;;;9.43;100.00;100096.38;5082454;28;20499;-67
2022/10/01 00:26:13;;;;;;;25.15;13.63;;;;;;;9.38;100.00;100086.75;5082966;28;20108;-66
2022/10/01 00:28:40;;;;;;;23.27;12.27;;;;;;;9.49;100.00;100090.22;5080808;28;20025;-67
2022/10/01 00:31:07;;;;;;;22.83;12.85;;;;;;;9.50;100.00;100105.19;5084208;28;20052;-67
2022/10/01 00:33:33;;;;;;;22.58;12.63;;;;;;;9.48;100.00;100084.94;5082389;28;20024;-67
2022/10/01 00:35:58;;;;;;;23.73;13.05;;;;;;;9.43;100.00;100070.00;5082783;28;20403;-67
2022/10/01 00:38:24;;;;;;;23.02;12.90;;;;;;;9.41;100.00;100055.97;5083618;28;20106;-67
2022/10/01 00:40:50;;;;;;;23.63;12.55;;;;;;;9.50;100.00;100065.59;5081254;28;20420;-67
2022/10/01 00:43:38;;;;;;;22.65;12.68;;;;;;;9.52;100.00;100078.78;5085057;28;20378;-67
2022/10/01 00:46:18;;;;;;;23.85;12.90;;;;;;;9.54;100.00;100103.44;5083733;28;20109;-67
2022/10/01 00:48:57;;;;;;;22.85;12.52;;;;;;;9.49;100.00;100073.53;5081427;28;20072;-67
2022/10/01 00:51:24;;;;;;;22.63;12.23;;;;;;;9.55;100.00;100087.59;5081945;28;20459;-66
2022/10/01 00:53:50;;;;;;;22.25;11.60;;;;;;;9.53;100.00;100091.09;5084132;28;20048;-65
2022/10/01 00:56:15;;;;;;;21.67;11.25;;;;;;;9.54;100.00;100091.09;5080856;28;20065;-66
2022/10/01 00:58:41;;;;;;;22.67;11.50;;;;;;;9.53;100.00;100077.91;5084445;28;20028;-67
2022/10/01 01:01:07;;;;;;;22.88;12.02;;;;;;;9.54;100.00;100092.88;5081521;28;20024;-67
2022/10/01 01:03:32;;;;;;;22.42;11.75;;;;;;;9.50;100.00;100064.72;5082943;28;20116;-66
2022/10/01 01:05:58;;;;;;;21.95;11.13;;;;;;;9.56;100.00;100080.53;5083029;28;20409;-67
2022/10/01 01:08:23;;;;;;;21.75;11.25;;;;;;;9.59;100.00;100091.06;5081516;28;20585;-67
2022/10/01 01:11:05;;;;;;;21.80;11.98;;;;;;;9.48;100.00;100082.31;5084337;28;20378;-67
2022/10/01 01:13:46;;;;;;;22.27;12.07;;;;;;;9.52;100.00;100049.75;5082444;28;20031;-66
2022/10/01 01:16:24;;;;;;;23.55;11.98;;;;;;;9.51;100.00;100056.81;5081053;28;20032;-66
2022/10/01 01:19:02;;;;;;;21.85;11.73;;;;;;;9.53;100.00;100048.88;5081241;28;20029;-67
2022/10/01 01:21:35;;;;;;;21.38;11.18;;;;;;;9.56;100.00;100039.19;5082788;28;20024;-66
2022/10/01 01:24:15;;;;;;;21.88;11.77;;;;;;;9.52;100.00;100005.81;5082274;28;20505;-66
2022/10/01 01:26:58;;;;;;;21.55;10.40;;;;;;;9.52;100.00;99984.69;5081002;28;20029;-66
2022/10/01 01:29:37;;;;;;;21.23;10.68;;;;;;;9.51;100.00;99963.56;5081478;28;20028;-66
2022/10/01 01:32:11;;;;;;;21.58;11.07;;;;;;;9.52;100.00;99949.50;5082077;28;20038;-66
2022/10/01 01:34:42;;;;;;;23.13;11.20;;;;;;;9.47;100.00;99917.00;5083320;28;20028;-66
2022/10/01 01:37:13;;;;;;;21.80;10.40;;;;;;;9.47;100.00;99901.19;5081375;28;20027;-66
2022/10/01 01:39:43;;;;;;;21.08;10.52;;;;;;;9.46;100.00;99875.69;5083348;28;20430;-66
2022/10/01 01:42:16;;;;;;;20.15;9.43;;;;;;;9.49;100.00;99909.94;5081170;28;20067;-66
2022/10/01 01:44:45;;;;;;;20.27;9.68;;;;;;;9.39;100.00;100015.53;5083779;28;20024;-66
2022/10/01 01:47:12;;;;;;;20.10;9.52;;;;;;;9.46;100.00;99991.75;5084372;28;20038;-66
2022/10/01 01:49:38;;;;;;;21.95;10.50;;;;;;;9.45;100.00;99976.81;5087099;28;20075;-70
2022/10/01 01:52:06;;;;;;;21.50;10.13;;;;;;;9.43;100.00;99971.53;5085858;28;20028;-70
2022/10/01 01:54:34;;;;;;;20.92;10.23;;;;;;;9.43;100.00;99937.25;5086313;28;20078;-69
2022/10/01 01:57:03;;;;;;;22.20;10.20;;;;;;;9.43;100.00;99959.22;5085959;28;20020;-68
2022/10/01 01:59:30;;;;;;;18.98;8.18;;;;;;;9.51;100.00;99979.41;5085628;28;20025;-69
2022/10/01 02:01:57;;;;;;;18.65;7.97;;;;;;;9.51;100.00;99951.28;5086533;28;20082;-69
2022/10/01 02:04:22;;;;;;;20.23;8.90;;;;;;;9.53;100.00;99990.84;5084756;28;20056;-69
2022/10/01 02:07:29;;;;;;;21.88;9.70;;;;;;;9.53;100.00;99975.00;5087363;28;20438;-71
2022/10/01 02:10:13;;;;;;;20.27;9.18;;;;;;;9.56;100.00;99961.81;5022732;28;20508;-69
2022/10/01 02:13:17;;;;;;;20.20;9.30;;;;;;;9.50;100.00;99949.50;5005986;28;20052;-71
2022/10/01 02:15:54;;;;;;;20.17;8.68;;;;;;;9.52;100.00;99962.69;5025213;28;20183;-71
2022/10/01 02:18:29;;;;;;;19.50;8.90;;;;;;;9.50;100.00;99959.19;5021794;28;20065;-71
2022/10/01 02:21:00;;;;;;;19.55;8.68;;;;;;;9.49;100.00;99954.81;5024251;28;20384;-71
2022/10/01 02:23:34;;;;;;;19.67;8.73;;;;;;;9.50;100.00;99943.38;5022409;28;20057;-71
2022/10/01 02:26:05;;;;;;;19.10;8.32;;;;;;;9.46;100.00;99946.91;5023636;28;20404;-71
2022/10/01 02:28:32;;;;;;;19.20;8.38;;;;;;;9.52;100.00;99938.94;5023349;28;20034;-70
2022/10/01 02:31:00;;;;;;;19.33;8.00;;;;;;;9.54;100.00;99940.69;5023744;28;20033;-71
2022/10/01 02:33:31;;;;;;;18.75;7.65;;;;;;;9.55;100.00;99944.22;5022137;28;20034;-71
2022/10/01 02:36:00;;;;;;;18.85;7.88;;;;;;;9.53;100.00;99943.34;5023920;28;20393;-69
2022/10/01 02:38:27;;;;;;;18.40;7.00;;;;;;;9.55;100.00;99913.44;5021962;28;20556;-71
2022/10/01 02:40:57;;;;;;;16.67;5.63;;;;;;;9.61;100.00;99909.88;5024069;28;20037;-69
2022/10/01 02:43:32;;;;;;;16.83;6.20;;;;;;;9.63;100.00;99944.19;5021991;28;20065;-70
2022/10/01 02:46:13;;;;;;;16.95;6.25;;;;;;;9.68;100.00;99940.59;5050996;28;20093;-70
2022/10/01 02:48:38;;;;;;;16.30;6.15;;;;;;;9.63;100.00;99928.34;5086294;28;20025;-70
2022/10/01 02:51:24;;;;;;;17.88;6.70;;;;;;;9.60;100.00;99926.59;5084544;28;20555;-70
2022/10/01 02:53:55;;;;;;;16.73;6.60;;;;;;;9.63;100.00;99923.06;5086686;28;20028;-70
2022/10/01 02:57:21;;;;;;;17.80;6.80;;;;;;;9.60;100.00;99916.91;5082718;28;20070;-65
2022/10/01 02:59:07;;;;;;;18.15;6.90;;;;;;;9.63;100.00;99897.56;5083640;28;20024;-65
2022/10/01 03:01:34;;;;;;;17.80;6.53;;;;;;;9.65;100.00;99914.22;5085113;28;20119;-66
2022/10/01 03:04:00;;;;;;;17.45;6.60;;;;;;;9.67;100.00;99917.75;5085268;28;20028;-65
2022/10/01 03:06:26;;;;;;;17.23;6.45;;;;;;;9.66;100.00;99921.28;5083784;28;20039;-66
2022/10/01 03:08:52;;;;;;;18.13;6.45;;;;;;;9.69;100.00;99910.69;5084895;28;20039;-65
2022/10/01 03:11:18;;;;;;;16.27;5.80;;;;;;;9.70;100.00;99907.19;5083050;28;20044;-66
2022/10/01 03:13:43;;;;;;;18.00;6.25;;;;;;;9.71;100.00;99911.56;5086299;28;20020;-66
2022/10/01 03:16:08;;;;;;;16.90;6.00;;;;;;;9.73;100.00;99908.94;5083645;28;20486;-65
2022/10/01 03:18:34;;;;;;;15.82;5.57;;;;;;;9.80;100.00;99899.19;5084622;28;20028;-66
2022/10/01 03:20:59;;;;;;;13.75;5.28;;;;;;;9.80;100.00;99886.00;5085009;28;20114;-65
2022/10/01 03:23:24;;;;;;;14.48;5.38;;;;;;;9.79;100.00;99908.88;5083109;28;20493;-65
2022/10/01 03:25:50;;;;;;;14.23;5.22;;;;;;;9.81;100.00;99883.34;5086133;28;20028;-66
2022/10/01 03:28:15;;;;;;;16.05;5.38;;;;;;;9.82;100.00;99902.72;5082512;28;20078;-65
2022/10/01 03:30:40;;;;;;;13.35;5.00;;;;;;;9.80;100.00;99900.09;5085548;28;20419;-66
2022/10/01 03:33:06;;;;;;;15.38;4.80;;;;;;;9.84;100.00;99901.78;5083567;28;20497;-66
2022/10/01 03:35:31;;;;;;;13.18;4.65;;;;;;;9.83;100.00;99897.41;5083971;28;20063;-66
2022/10/01 03:37:57;;;;;;;13.40;4.63;;;;;;;9.83;100.00;99896.50;5084702;28;20039;-67
2022/10/01 03:40:24;;;;;;;12.05;4.47;;;;;;;9.85;100.00;99907.97;5082575;28;20092;-69
2022/10/01 03:42:49;;;;;;;10.50;4.30;;;;;;;9.86;100.00;99899.13;5085581;28;20028;-69
2022/10/01 03:45:15;;;;;;;11.93;4.30;;;;;;;9.86;100.00;99907.94;5082088;28;20024;-69
2022/10/01 03:47:40;;;;;;;13.30;4.25;;;;;;;9.91;100.00;99898.22;5085071;28;20028;-69
2022/10/01 03:50:06;;;;;;;10.95;3.90;;;;;;;9.91;100.00;99902.63;5083723;28;20103;-65
2022/10/01 03:52:31;;;;;;;11.77;4.10;;;;;;;9.92;100.00;99904.38;5083643;28;20073;-66
2022/10/01 03:54:57;;;;;;;11.48;3.88;;;;;;;9.98;100.00;99904.31;5084602;28;20123;-65
2022/10/01 03:57:22;;;;;;;10.35;3.72;;;;;;;10.01;100.00;99898.16;5082254;28;20103;-67
2022/10/01 03:59:47;;;;;;;9.70;3.67;;;;;;;10.03;100.00;99899.91;5085502;28;20459;-65
2022/10/01 04:02:13;;;;;;;9.15;3.50;;;;;;;10.06;100.00;99917.47;5080589;28;20094;-66
2022/10/01 04:04:38;;;;;;;10.55;3.53;;;;;;;10.06;100.00;99907.78;5084225;28;20097;-66
2022/10/01 04:07:03;;;;;;;7.90;3.30;;;;;;;10.09;100.00;99907.75;5082992;28;20386;-66
2022/10/01 04:09:29;;;;;;;8.55;3.40;;;;;;;10.10;100.00;99920.06;5082649;28;20025;-65
2022/10/01 04:11:54;;;;;;;9.75;3.20;;;;;;;10.18;100.00;99917.38;5084499;28;20030;-66
2022/10/01 04:14:20;;;;;;;6.82;3.08;;;;;;;10.17;100.00;99923.53;5081489;28;20540;-65
2022/10/01 04:16:45;;;;;;;7.72;2.90;;;;;;;10.18;100.00;99916.47;5081665;28;20421;-67
2022/10/01 04:19:11;;;;;;;7.05;3.03;;;;;;;10.21;100.00;99925.25;5084291;28;20065;-66
2022/10/01 04:21:37;;;;;;;6.28;2.90;;;;;;;10.27;100.00;99924.34;5082646;28;20032;-66
2022/10/01 04:24:04;;;;;;;6.43;2.90;;;;;;;10.27;100.00;99922.56;5083385;28;20471;-65
2022/10/01 04:26:29;;;;;;;6.85;2.80;;;;;;;10.31;100.00;99923.44;5083453;28;20429;-66
2022/10/01 04:28:54;;;;;;;7.50;2.85;;;;;;;10.31;100.00;99928.72;5081751;28;20033;-66
2022/10/01 04:31:26;;;;;;;7.68;2.95;;;;;;;10.35;100.00;99927.78;5085208;28;20032;-65
2022/10/01 04:33:56;;;;;;;9.23;3.20;;;;;;;10.40;100.00;99935.69;5081349;28;20033;-66
2022/10/01 04:36:23;;;;;;;8.48;3.22;;;;;;;10.41;100.00;99927.75;5084568;28;20024;-67
2022/10/01 04:38:55;;;;;;;7.90;3.30;;;;;;;10.40;100.00;99938.34;5081321;28;20044;-66
2022/10/01 04:41:21;;;;;;;8.18;3.22;;;;;;;10.43;100.00;99933.91;5081290;28;20082;-66
2022/10/01 04:43:46;;;;;;;11.18;3.45;;;;;;;10.43;100.00;99944.47;5084513;28;20028;-65
2022/10/01 04:46:13;;;;;;;9.30;3.60;;;;;;;10.48;100.00;99943.56;5081985;28;20024;-67
2022/10/01 04:48:38;;;;;;;7.97;3.40;;;;;;;10.47;100.00;99942.69;5083688;28;20432;-65
2022/10/01 04:51:03;;;;;;;9.60;3.70;;;;;;;10.50;100.00;99947.03;5082619;28;20062;-65
2022/10/01 04:53:29;;;;;;;10.90;4.28;;;;;;;10.55;100.00;99932.03;5081109;28;20120;-65
2022/10/01 04:55:54;;;;;;;11.73;4.05;;;;;;;10.58;100.00;99926.72;5083845;28;20024;-66
2022/10/01 04:58:19;;;;;;;10.10;3.90;;;;;;;10.59;100.00;99941.69;5080825;28;20475;-65
2022/10/01 05:00:45;;;;;;;11.52;4.40;;;;;;;10.64;100.00;99947.78;5084633;28;20028;-65
2022/10/01 05:03:10;;;;;;;12.50;4.57;;;;;;;10.61;100.00;99958.38;5081740;28;20036;-65
2022/10/01 05:05:36;;;;;;;11.55;4.20;;;;;;;10.66;100.00;99950.41;5082809;28;20020;-67
2022/10/01 05:08:01;;;;;;;14.05;4.70;;;;;;;10.67;100.00;99953.03;5082942;28;20466;-66
2022/10/01 05:10:27;;;;;;;14.18;4.75;;;;;;;10.70;100.00;99963.56;5081670;28;20104;-65
2022/10/01 05:12:52;;;;;;;14.55;4.90;;;;;;;10.69;100.00;99959.19;5084061;28;20047;-65
2022/10/01 05:15:18;;;;;;;14.07;5.13;;;;;;;10.68;100.00;99969.78;5080789;28;20031;-65
2022/10/01 05:17:45;;;;;;;15.32;5.43;;;;;;;10.69;100.00;99971.50;5084265;28;20029;-66
2022/10/01 05:20:17;;;;;;;15.73;5.75;;;;;;;10.69;100.00;99977.69;5081786;28;20381;-66
2022/10/01 05:22:43;;;;;;;17.40;5.93;;;;;;;10.72;100.00;99982.09;5088035;28;20201;-66
2022/10/01 05:25:09;;;;;;;16.05;5.97;;;;;;;10.73;100.00;99987.34;5085811;28;20035;-66
2022/10/01 05:27:36;;;;;;;17.60;6.68;;;;;;;10.75;100.00;99976.78;5086487;28;20039;-67
2022/10/01 05:30:07;;;;;;;18.45;6.78;;;;;;;10.76;100.00;99989.97;5086954;28;20021;-67
2022/10/01 05:32:33;;;;;;;19.00;7.05;;;;;;;10.79;100.00;99991.69;5086182;28;20498;-67
2022/10/01 05:34:58;;;;;;;18.00;6.93;;;;;;;10.82;100.00;99994.31;5087292;28;20017;-67
2022/10/01 05:37:23;;;;;;;18.23;7.65;;;;;;;10.79;100.00;99992.56;5084847;28;20483;-68
2022/10/01 05:39:48;;;;;;;19.88;7.90;;;;;;;10.88;100.00;99988.97;5088181;28;20509;-67
2022/10/01 05:42:14;;;;;;;18.73;7.93;;;;;;;10.89;100.00;100000.41;5084737;28;20028;-67
2022/10/01 05:44:44;;;;;;;19.40;8.55;;;;;;;10.92;100.00;100005.66;5086999;28;20018;-67
2022/10/01 05:47:12;;;;;;;20.77;8.98;;;;;;;10.90;100.00;99999.53;5085165;28;20043;-67
2022/10/01 05:49:41;;;;;;;20.90;9.27;;;;;;;10.92;100.00;100008.31;5086770;28;20031;-67
2022/10/01 05:52:06;;;;;;;19.90;8.80;;;;;;;10.92;100.00;100013.59;5085920;28;20024;-67
2022/10/01 05:54:32;;;;;;;19.80;8.65;;;;;;;10.93;100.00;100010.06;5085716;28;20035;-67
2022/10/01 05:56:57;;;;;;;19.60;8.80;;;;;;;10.96;100.00;100024.13;5086754;28;20024;-68
2022/10/01 05:59:23;;;;;;;20.02;8.80;;;;;;;10.98;100.00;100025.00;5083070;28;20028;-66
2022/10/01 06:01:49;;;;;;;20.60;9.60;;;;;;;10.98;100.00;100025.00;5088580;28;20534;-66
2022/10/01 06:04:14;;;;;;;20.70;9.40;;;;;;;10.98;100.00;100026.78;5088357;28;20127;-67
2022/10/01 06:06:39;;;;;;;21.33;10.00;;;;;;;10.99;100.00;100020.56;5087037;28;20064;-65
2022/10/01 06:09:05;;;;;;;20.55;10.18;;;;;;;10.94;100.00;100031.19;5088897;28;20025;-64
2022/10/01 06:11:30;;;;;;;21.40;10.02;;;;;;;10.91;100.00;100028.59;5091122;28;20028;-65
2022/10/01 06:13:55;;;;;;;21.13;10.50;;;;;;;10.89;100.00;100032.13;5089142;28;20428;-67
2022/10/01 06:16:21;;;;;;;21.88;10.65;;;;;;;10.95;100.00;100032.06;5090058;28;20029;-66
2022/10/01 06:18:48;;;;;;;21.63;10.90;;;;;;;10.95;100.00;100034.72;5090123;28;20478;-65
2022/10/01 06:21:13;;;;;;;22.60;11.10;;;;;;;10.99;100.00;100039.09;5089026;28;20114;-65
2022/10/01 06:23:38;;;;;;;22.65;11.32;;;;;;;11.02;100.00;100039.03;5089465;28;20120;-65
2022/10/01 06:26:04;;;;;;;23.48;11.57;;;;;;;11.06;100.00;100040.78;5090918;28;20090;-66
2022/10/01 06:28:30;;;;;;;24.10;12.30;;;;;;;11.10;100.00;100053.06;5087249;28;20050;-65
2022/10/01 06:30:56;;;;;;;23.70;12.55;;;;;;;11.12;100.00;100048.63;5090359;28;20081;-65
2022/10/01 06:33:21;;;;;;;23.73;12.13;;;;;;;11.15;100.00;100050.38;5089506;28;20103;-65
2022/10/01 06:35:50;;;;;;;24.00;12.80;;;;;;;11.19;100.00;100054.75;5088135;28;20374;-66
2022/10/01 06:38:17;;;;;;;24.08;12.13;;;;;;;11.23;100.00;100050.31;5088051;28;20048;-65
2022/10/01 06:40:42;;;;;;;23.98;12.90;;;;;;;11.28;100.00;100052.00;5089034;28;20593;-66
2022/10/01 06:43:08;;;;;;;23.77;12.85;;;;;;;11.34;100.00;100056.34;5090242;28;20119;-66
2022/10/01 06:45:42;;;;;;;24.85;13.15;;;;;;;11.41;100.00;100062.44;5087339;28;20028;-65
2022/10/01 06:48:12;;;;;;;26.08;13.60;;;;;;;11.47;100.00;100067.66;5089232;28;20471;-65
2022/10/01 06:50:38;;;;;;;25.50;13.77;;;;;;;11.49;100.00;100066.75;5089445;28;20056;-64
2022/10/01 06:53:04;;;;;;;24.48;13.48;;;;;;;11.59;100.00;100070.19;5088629;28;20113;-65
2022/10/01 06:55:32;;;;;;;25.58;13.75;;;;;;;11.68;100.00;100075.34;5086282;28;20380;-65
2022/10/01 06:58:00;;;;;;;25.15;13.63;;;;;;;11.70;100.00;100064.75;5088484;28;20028;-66
2022/10/01 07:00:28;;;;;;;25.80;13.48;;;;;;;11.75;100.00;100072.63;5089356;28;20057;-65
2022/10/01 07:02:54;;;;;;;25.55;13.10;;;;;;;11.82;100.00;100076.94;5087290;28;20031;-65
2022/10/01 07:05:21;;;;;;;25.38;13.07;;;;;;;11.83;100.00;100073.41;5087860;28;20032;-66
2022/10/01 07:07:47;;;;;;;24.85;13.27;;;;;;;11.85;100.00;100084.84;5087578;28;20032;-66
2022/10/01 07:10:14;;;;;;;25.45;12.93;;;;;;;11.91;100.00;100083.91;5087304;28;20027;-66
2022/10/01 07:12:39;;;;;;;24.38;12.75;;;;;;;11.93;100.00;100082.13;5088735;28;20036;-66
2022/10/01 07:15:06;;;;;;;24.25;12.90;;;;;;;11.93;100.00;100088.31;5089414;28;20411;-65
2022/10/01 07:17:33;;;;;;;25.23;13.02;;;;;;;11.98;100.00;100075.00;5088308;28;20463;-65
2022/10/01 07:19:58;;;;;;;23.92;12.70;;;;;;;12.08;100.00;100089.88;5090242;28;20102;-66
2022/10/01 07:22:24;;;;;;;23.08;12.95;;;;;;;12.25;100.00;100096.72;5085729;28;20111;-70
2022/10/01 07:24:50;;;;;;;24.10;12.45;;;;;;;12.33;100.00;100097.47;5086239;28;20495;-68
2022/10/01 07:27:16;;;;;;;24.60;12.77;;;;;;;12.37;100.00;100099.19;5089088;28;20551;-69
2022/10/01 07:29:41;;;;;;;24.42;12.63;;;;;;;12.40;100.00;100101.78;5086549;28;20035;-69
2022/10/01 07:32:09;;;;;;;23.83;12.43;;;;;;;12.38;100.00;100100.94;5086155;28;20546;-69
2022/10/01 07:34:37;;;;;;;23.02;11.85;;;;;;;12.37;100.00;100115.09;5085603;28;20024;-69
2022/10/01 07:37:03;;;;;;;25.65;12.80;;;;;;;12.32;100.00;100109.84;5084564;28;20089;-69
2022/10/01 07:39:29;;;;;;;25.17;12.60;;;;;;;12.28;100.00;100120.53;5085920;28;20513;-70
2022/10/01 07:41:55;;;;;;;25.88;13.93;;;;;;;12.22;100.00;100124.13;5089654;28;20059;-71
2022/10/01 07:44:20;;;;;;;27.35;13.85;;;;;;;12.18;100.00;100130.38;5088180;28;20073;-70
2022/10/01 07:46:47;;;;;;;31.98;15.13;;;;;;;12.17;100.00;100144.50;5083993;28;20028;-71
2022/10/01 07:49:12;;;;;;;31.63;16.05;;;;;;;12.13;100.00;100148.97;5083487;28;20076;-72
2022/10/01 07:51:38;;;;;;;30.98;16.77;;;;;;;12.10;100.00;100141.09;5084745;28;20047;-71
2022/10/01 07:54:04;;;;;;;33.95;19.17;;;;;;;12.12;100.00;100155.16;5080899;28;20032;-70
2022/10/01 07:56:30;;;;;;;34.83;17.55;;;;;;;12.09;100.00;100152.56;5083545;28;20036;-70
2022/10/01 07:58:56;;;;;;;34.85;19.10;;;;;;;12.12;100.00;100157.81;5082055;28;20383;-70
2022/10/01 08:01:22;;;;;;;34.95;18.75;;;;;;;12.13;100.00;100166.63;5084673;28;20036;-69
2022/10/01 08:03:48;;;;;;;38.38;20.02;;;;;;;12.13;100.00;100164.88;5083152;28;20484;-70
2022/10/01 08:06:14;;;;;;;36.53;19.80;;;;;;;12.17;100.00;100165.69;5083013;28;20490;-70
2022/10/01 08:08:39;;;;;;;38.58;20.50;;;;;;;12.21;100.00;100168.28;5084533;28;20025;-70
2022/10/01 08:11:06;;;;;;;36.63;20.27;;;;;;;12.20;100.00;100173.59;5081989;28;20425;-71
2022/10/01 08:13:33;;;;;;;37.35;19.98;;;;;;;12.23;100.00;100170.06;5085407;28;20028;-70
2022/10/01 08:16:02;;;;;;;36.80;20.38;;;;;;;12.35;100.00;100172.56;5081745;28;20099;-70
2022/10/01 08:18:27;;;;;;;37.90;20.98;;;;;;;12.47;100.00;100180.31;5085382;28;20106;-70
2022/10/01 08:20:53;;;;;;;36.15;20.25;;;;;;;12.42;100.00;100186.56;5082469;28;20103;-70
2022/10/01 08:23:20;;;;;;;37.08;19.77;;;;;;;12.46;100.00;100186.50;5083945;28;20020;-70
2022/10/01 08:25:46;;;;;;;38.35;21.50;;;;;;;12.51;100.00;100197.94;5083115;28;20027;-70
2022/10/01 08:28:13;;;;;;;37.35;21.15;;;;;;;12.54;100.00;100194.38;5082430;28;20158;-70
2022/10/01 08:30:40;;;;;;;37.20;20.95;;;;;;;12.63;100.00;100206.63;5084409;28;20028;-69
2022/10/01 08:33:08;;;;;;;37.60;20.95;;;;;;;12.69;100.00;100206.53;5081769;28;20020;-70
2022/10/01 08:35:37;;;;;;;35.40;20.35;;;;;;;12.67;100.00;100209.22;5083802;28;20107;-69
2022/10/01 08:38:04;;;;;;;34.03;19.50;;;;;;;12.63;100.00;100211.94;5081202;28;20515;-70
2022/10/01 08:40:34;;;;;;;32.38;17.83;;;;;;;12.60;100.00;100209.31;5081547;28;20115;-69
2022/10/01 08:43:05;;;;;;;29.88;15.75;;;;;;;12.52;100.00;100214.72;5081091;28;20107;-70
2022/10/01 08:45:50;;;;;;;30.60;15.77;;;;;;;12.52;100.00;100215.59;5081321;28;20116;-70
2022/10/01 08:48:40;;;;;;;30.42;15.80;;;;;;;12.55;100.00;100219.97;5082694;28;20037;-66
2022/10/01 08:51:12;;;;;;;28.67;14.35;;;;;;;12.73;100.00;100203.81;5081270;28;20036;-68
2022/10/01 08:53:43;;;;;;;27.13;13.18;;;;;;;12.71;100.00;100226.84;5083998;28;20020;-66
2022/10/01 08:56:20;;;;;;;27.05;13.18;;;;;;;12.61;100.00;100227.88;5081874;28;20115;-68
2022/10/01 08:58:52;;;;;;;25.73;11.80;;;;;;;12.45;100.00;100224.53;5082833;28;20035;-68
2022/10/01 09:01:18;;;;;;;26.75;11.65;;;;;;;12.39;100.00;100216.66;5082899;28;20061;-69
2022/10/01 09:03:43;;;;;;;26.67;11.85;;;;;;;12.75;100.00;100226.78;5083041;28;20102;-68
2022/10/01 09:06:21;;;;;;;26.88;11.95;;;;;;;12.73;100.00;100229.47;5081331;28;20111;-69
2022/10/01 09:09:15;;;;;;;26.75;11.70;;;;;;;13.00;100.00;100232.59;5082497;28;20378;-67
2022/10/01 09:12:22;;;;;;;27.58;12.98;;;;;;;13.16;100.00;100244.72;5082107;28;20040;-68
2022/10/01 09:15:05;;;;;;;27.40;12.65;;;;;;;13.37;100.00;100232.06;5082833;28;20130;-69
2022/10/01 09:17:43;;;;;;;27.77;11.75;;;;;;;13.43;100.00;100253.19;5081032;28;20387;-68
2022/10/01 09:20:23;;;;;;;27.92;12.07;;;;;;;13.76;100.00;100245.50;5080642;28;20107;-66
2022/10/01 09:23:06;;;;;;;27.80;12.25;;;;;;;14.11;100.00;100254.59;5082214;28;20455;-66
2022/10/01 09:25:34;;;;;;;27.35;10.98;;;;;;;14.56;100.00;100248.38;5084261;28;20378;-68
2022/10/01 09:28:14;;;;;;;26.70;10.70;;;;;;;14.99;100.00;100264.28;5080847;28;20024;-68
2022/10/01 09:30:45;;;;;;;25.60;8.10;;;;;;;14.93;100.00;100259.09;5081073;28;20479;-68
2022/10/01 09:33:17;;;;;;;26.13;7.55;;;;;;;15.24;100.00;100263.69;5083774;28;20107;-67
2022/10/01 09:36:13;;;;;;;23.77;6.40;;;;;;;15.37;100.00;100268.75;5081737;28;20028;-68
2022/10/01 09:38:41;;;;;;;23.48;5.63;;;;;;;15.33;100.00;100274.16;5080847;28;20085;-67
2022/10/01 09:41:09;;;;;;;22.05;5.00;;;;;;;15.71;100.00;100270.53;5084333;28;20024;-66
2022/10/01 09:43:37;;;;;;;19.85;4.22;;;;;;;16.21;100.00;100263.88;5080377;28;20028;-67
2022/10/01 09:46:12;;;;;;;20.90;4.22;;;;;;;16.74;100.00;100255.22;5083892;28;20540;-66
2022/10/01 09:49:00;;;;;;;20.45;3.90;;;;;;;16.61;100.00;100256.50;5080986;28;20036;-68
2022/10/01 09:51:33;;;;;;;21.25;3.53;;;;;;;16.44;100.00;100254.34;5083259;28;20368;-66
2022/10/01 09:54:11;;;;;;;20.20;3.70;;;;;;;16.48;100.00;100256.00;5081545;28;20021;-67
2022/10/01 09:56:41;;;;;;;19.95;3.53;;;;;;;17.11;100.00;100268.38;5083879;28;20032;-67
2022/10/01 09:59:18;;;;;;;19.77;3.40;;;;;;;17.32;100.00;100269.50;5080569;28;20032;-66
2022/10/01 10:01:55;;;;;;;22.63;3.58;;;;;;;16.88;100.00;100275.31;5081194;28;20058;-67
2022/10/01 10:04:22;;;;;;;19.92;3.60;;;;;;;16.86;100.00;100277.13;5081982;28;20051;-66
2022/10/01 10:06:49;;;;;;;19.02;3.22;;;;;;;17.82;100.00;100279.41;5082977;28;20020;-67
2022/10/01 10:09:18;;;;;;;18.23;3.28;;;;;;;17.97;100.00;100286.94;5086297;28;20027;-66
2022/10/01 10:11:44;;;;;;;20.20;3.58;;;;;;;16.88;100.00;100280.66;5085047;28;20399;-67
2022/10/01 10:14:28;;;;;;;19.90;3.55;;;;;;;16.28;100.00;100285.94;5087197;28;20044;-66
2022/10/01 10:16:55;;;;;;;19.30;3.40;;;;;;;15.62;100.00;100291.16;5086608;28;20031;-68
2022/10/01 10:19:24;;;;;;;19.60;3.28;;;;;;;15.31;100.00;100299.06;5085788;28;20084;-66
2022/10/01 10:21:56;;;;;;;22.05;3.47;;;;;;;15.34;100.00;100302.50;5085406;28;20016;-66
2022/10/01 10:24:33;;;;;;;19.87;3.10;;;;;;;16.83;100.00;100311.91;5085374;28;20024;-69
2022/10/01 10:27:00;;;;;;;17.40;2.97;;;;;;;18.07;100.00;100309.75;5086522;28;20035;-67
2022/10/01 10:29:31;;;;;;;20.85;3.45;;;;;;;17.97;100.00;100311.00;5084590;28;20024;-67
2022/10/01 10:32:01;;;;;;;17.55;3.45;;;;;;;18.96;100.00;100315.41;5086155;28;20507;-67
2022/10/01 10:34:34;;;;;;;18.92;3.15;;;;;;;19.78;100.00;100313.03;5084495;28;20024;-67
2022/10/01 10:37:05;;;;;;;19.95;3.20;;;;;;;20.60;100.00;100312.13;5086498;28;20479;-67
2022/10/01 10:39:35;;;;;;;18.35;3.00;;;;;;;20.57;100.00;100331.06;5084049;28;20033;-66
2022/10/01 10:42:02;;;;;;;16.38;2.70;;;;;;;20.54;100.00;100331.22;5086647;28;20021;-66
2022/10/01 10:44:36;;;;;;;17.77;2.92;;;;;;;20.90;100.00;100326.00;5084416;28;20037;-69
2022/10/01 10:47:06;;;;;;;15.05;2.40;;;;;;;21.32;100.00;100331.19;5086465;28;20111;-67
2022/10/01 10:49:35;;;;;;;14.65;2.70;;;;;;;21.21;100.00;100332.59;5083804;28;20025;-67
2022/10/01 10:52:01;;;;;;;15.60;2.60;;;;;;;20.23;100.00;100337.06;5086314;28;20028;-67
2022/10/01 10:54:38;;;;;;;16.83;2.90;;;;;;;19.65;100.00;100354.69;5084273;28;20028;-68
2022/10/01 10:57:20;;;;;;;18.73;2.97;;;;;;;18.51;100.00;100367.03;5086508;28;20020;-67
2022/10/01 11:00:00;;;;;;;17.27;2.55;;;;;;;17.56;100.00;100366.66;5084314;28;20039;-67
2022/10/01 11:02:29;;;;;;;18.08;2.90;;;;;;;17.25;100.00;100357.81;5084596;28;20024;-67
2022/10/01 11:05:16;;;;;;;16.98;2.85;;;;;;;18.34;100.00;100365.00;5085157;28;20016;-66
2022/10/01 11:07:44;;;;;;;16.80;2.63;;;;;;;20.73;100.00;100375.09;5083368;28;20036;-67
2022/10/01 11:10:42;;;;;;;18.67;3.00;;;;;;;21.66;100.00;100383.38;5086278;28;20024;-66
2022/10/01 11:13:23;;;;;;;18.05;2.90;;;;;;;21.32;100.00;100379.56;5083332;28;20095;-67
2022/10/01 11:15:58;;;;;;;19.35;3.10;;;;;;;20.13;100.00;100393.81;5084541;28;20509;-67
2022/10/01 11:18:31;;;;;;;16.55;2.95;;;;;;;18.54;100.00;100383.88;5083071;28;20398;-67
2022/10/01 11:21:21;;;;;;;17.42;3.10;;;;;;;17.25;100.00;100392.53;5085375;28;20027;-68
2022/10/01 11:24:31;;;;;;;20.33;3.20;;;;;;;18.11;100.00;100388.03;5084345;28;20029;-67